sensor_id;sensor_type;location;lat;lon;timestamp;P1;durP1;ratioP1;P2;durP2;ratioP2
46563;SDS011;32291;52.010;4.446;2023-04-16T00:00:25;5.75;;;2.58;;
46563;SDS011;32291;52.010;4.446;2023-04-16T00:01:28;11.30;;;3.33;;
46563;SDS011;32291;52.010;4.446;2023-04-16T00:02:31;9.70;;;3.47;;
46563;SDS011;32291;52.010;4.446;2023-04-16T00:03:34;11.07;;;3.15;;
46563;SDS011;32291;52.010;4.446;2023-04-16T00:04:35;9.32;;;2.90;;
46563;SDS011;32291;52.010;4.446;2023-04-16T00:05:37;11.38;;;2.90;;
46563;SDS011;32291;52.010;4.446;2023-04-16T00:06:38;10.93;;;3.20;;
46563;SDS011;32291;52.010;4.446;2023-04-16T00:07:40;13.70;;;3.30;;
46563;SDS011;32291;52.010;4.446;2023-04-16T00:08:42;9.13;;;3.08;;
46563;SDS011;32291;52.010;4.446;2023-04-16T00:09:43;11.63;;;2.83;;
46563;SDS011;32291;52.010;4.446;2023-04-16T00:10:46;9.40;;;2.92;;
46563;SDS011;32291;52.010;4.446;2023-04-16T00:11:47;9.90;;;2.30;;
46563;SDS011;32291;52.010;4.446;2023-04-16T00:12:49;10.32;;;2.22;;
46563;SDS011;32291;52.010;4.446;2023-04-16T00:13:51;6.90;;;2.72;;
46563;SDS011;32291;52.010;4.446;2023-04-16T00:14:53;6.72;;;2.58;;
46563;SDS011;32291;52.010;4.446;2023-04-16T00:15:54;8.10;;;2.75;;
46563;SDS011;32291;52.010;4.446;2023-04-16T00:16:56;8.35;;;2.92;;
46563;SDS011;32291;52.010;4.446;2023-04-16T00:17:57;11.07;;;3.17;;
46563;SDS011;32291;52.010;4.446;2023-04-16T00:18:59;5.40;;;2.22;;
46563;SDS011;32291;52.010;4.446;2023-04-16T00:20:01;5.70;;;2.00;;
46563;SDS011;32291;52.010;4.446;2023-04-16T00:21:03;10.82;;;2.85;;
46563;SDS011;32291;52.010;4.446;2023-04-16T00:22:04;8.20;;;2.45;;
46563;SDS011;32291;52.010;4.446;2023-04-16T00:23:07;11.60;;;2.60;;
46563;SDS011;32291;52.010;4.446;2023-04-16T00:24:09;7.38;;;2.60;;
46563;SDS011;32291;52.010;4.446;2023-04-16T00:25:11;10.27;;;2.40;;
46563;SDS011;32291;52.010;4.446;2023-04-16T00:26:14;9.70;;;2.67;;
46563;SDS011;32291;52.010;4.446;2023-04-16T00:27:17;6.35;;;3.50;;
46563;SDS011;32291;52.010;4.446;2023-04-16T00:28:19;9.85;;;3.08;;
46563;SDS011;32291;52.010;4.446;2023-04-16T00:29:21;7.45;;;3.05;;
46563;SDS011;32291;52.010;4.446;2023-04-16T00:30:23;7.40;;;2.85;;
46563;SDS011;32291;52.010;4.446;2023-04-16T00:31:25;5.30;;;2.67;;
46563;SDS011;32291;52.010;4.446;2023-04-16T00:32:29;7.57;;;3.03;;
46563;SDS011;32291;52.010;4.446;2023-04-16T00:33:32;7.20;;;3.03;;
46563;SDS011;32291;52.010;4.446;2023-04-16T00:34:34;6.60;;;2.20;;
46563;SDS011;32291;52.010;4.446;2023-04-16T00:35:35;4.93;;;2.13;;
46563;SDS011;32291;52.010;4.446;2023-04-16T00:36:37;7.90;;;2.50;;
46563;SDS011;32291;52.010;4.446;2023-04-16T00:37:38;7.05;;;2.70;;
46563;SDS011;32291;52.010;4.446;2023-04-16T00:38:40;7.72;;;1.85;;
46563;SDS011;32291;52.010;4.446;2023-04-16T00:39:42;7.07;;;2.20;;
46563;SDS011;32291;52.010;4.446;2023-04-16T00:40:44;10.23;;;2.67;;
46563;SDS011;32291;52.010;4.446;2023-04-16T00:41:45;12.68;;;2.95;;
46563;SDS011;32291;52.010;4.446;2023-04-16T00:42:48;6.78;;;3.00;;
46563;SDS011;32291;52.010;4.446;2023-04-16T00:43:50;6.82;;;2.47;;
46563;SDS011;32291;52.010;4.446;2023-04-16T00:44:53;8.38;;;2.20;;
46563;SDS011;32291;52.010;4.446;2023-04-16T00:45:55;6.00;;;2.20;;
46563;SDS011;32291;52.010;4.446;2023-04-16T00:46:57;8.63;;;2.65;;
46563;SDS011;32291;52.010;4.446;2023-04-16T00:47:59;7.47;;;2.90;;
46563;SDS011;32291;52.010;4.446;2023-04-16T00:49:02;10.18;;;2.78;;
46563;SDS011;32291;52.010;4.446;2023-04-16T00:50:05;10.52;;;2.45;;
46563;SDS011;32291;52.010;4.446;2023-04-16T00:51:07;4.22;;;1.73;;
46563;SDS011;32291;52.010;4.446;2023-04-16T00:52:10;9.52;;;2.50;;
46563;SDS011;32291;52.010;4.446;2023-04-16T00:53:12;5.93;;;2.05;;
46563;SDS011;32291;52.010;4.446;2023-04-16T00:54:15;6.18;;;2.33;;
46563;SDS011;32291;52.010;4.446;2023-04-16T00:55:17;5.25;;;2.80;;
46563;SDS011;32291;52.010;4.446;2023-04-16T00:56:19;6.85;;;2.58;;
46563;SDS011;32291;52.010;4.446;2023-04-16T00:57:23;11.75;;;2.28;;
46563;SDS011;32291;52.010;4.446;2023-04-16T00:58:25;11.63;;;3.30;;
46563;SDS011;32291;52.010;4.446;2023-04-16T00:59:27;10.95;;;2.63;;
46563;SDS011;32291;52.010;4.446;2023-04-16T01:00:29;7.72;;;2.28;;
46563;SDS011;32291;52.010;4.446;2023-04-16T01:01:31;11.57;;;2.50;;
46563;SDS011;32291;52.010;4.446;2023-04-16T01:02:33;9.18;;;3.05;;
46563;SDS011;32291;52.010;4.446;2023-04-16T01:03:38;6.78;;;2.10;;
46563;SDS011;32291;52.010;4.446;2023-04-16T01:04:44;7.60;;;2.70;;
46563;SDS011;32291;52.010;4.446;2023-04-16T01:05:46;6.50;;;2.90;;
46563;SDS011;32291;52.010;4.446;2023-04-16T01:06:49;8.13;;;2.40;;
46563;SDS011;32291;52.010;4.446;2023-04-16T01:07:51;9.18;;;2.38;;
46563;SDS011;32291;52.010;4.446;2023-04-16T01:08:53;11.20;;;2.85;;
46563;SDS011;32291;52.010;4.446;2023-04-16T01:09:55;8.60;;;2.50;;
46563;SDS011;32291;52.010;4.446;2023-04-16T01:10:57;6.57;;;2.45;;
46563;SDS011;32291;52.010;4.446;2023-04-16T01:11:58;9.20;;;2.75;;
46563;SDS011;32291;52.010;4.446;2023-04-16T01:13:01;13.13;;;2.53;;
46563;SDS011;32291;52.010;4.446;2023-04-16T01:14:03;5.75;;;2.33;;
46563;SDS011;32291;52.010;4.446;2023-04-16T01:15:05;6.15;;;2.50;;
46563;SDS011;32291;52.010;4.446;2023-04-16T01:16:08;7.55;;;2.40;;
46563;SDS011;32291;52.010;4.446;2023-04-16T01:17:12;6.88;;;2.70;;
46563;SDS011;32291;52.010;4.446;2023-04-16T01:18:14;4.32;;;1.95;;
46563;SDS011;32291;52.010;4.446;2023-04-16T01:19:17;7.10;;;2.33;;
46563;SDS011;32291;52.010;4.446;2023-04-16T01:20:18;10.73;;;2.38;;
46563;SDS011;32291;52.010;4.446;2023-04-16T01:21:20;6.88;;;2.13;;
46563;SDS011;32291;52.010;4.446;2023-04-16T01:22:22;6.88;;;2.63;;
46563;SDS011;32291;52.010;4.446;2023-04-16T01:23:24;6.18;;;2.05;;
46563;SDS011;32291;52.010;4.446;2023-04-16T01:24:26;9.13;;;2.35;;
46563;SDS011;32291;52.010;4.446;2023-04-16T01:25:28;7.32;;;2.10;;
46563;SDS011;32291;52.010;4.446;2023-04-16T01:26:30;7.50;;;2.78;;
46563;SDS011;32291;52.010;4.446;2023-04-16T01:27:32;8.77;;;2.25;;
46563;SDS011;32291;52.010;4.446;2023-04-16T01:28:33;8.73;;;2.05;;
46563;SDS011;32291;52.010;4.446;2023-04-16T01:29:36;8.40;;;2.25;;
46563;SDS011;32291;52.010;4.446;2023-04-16T01:30:38;5.55;;;2.25;;
46563;SDS011;32291;52.010;4.446;2023-04-16T01:31:39;6.60;;;1.98;;
46563;SDS011;32291;52.010;4.446;2023-04-16T01:32:41;8.05;;;2.35;;
46563;SDS011;32291;52.010;4.446;2023-04-16T01:33:45;8.45;;;2.50;;
46563;SDS011;32291;52.010;4.446;2023-04-16T01:34:47;9.90;;;2.83;;
46563;SDS011;32291;52.010;4.446;2023-04-16T01:35:49;9.60;;;2.33;;
46563;SDS011;32291;52.010;4.446;2023-04-16T01:36:51;10.25;;;3.08;;
46563;SDS011;32291;52.010;4.446;2023-04-16T01:37:53;7.53;;;2.28;;
46563;SDS011;32291;52.010;4.446;2023-04-16T01:38:55;7.78;;;2.40;;
46563;SDS011;32291;52.010;4.446;2023-04-16T01:39:57;8.07;;;2.47;;
46563;SDS011;32291;52.010;4.446;2023-04-16T01:40:59;10.35;;;2.53;;
46563;SDS011;32291;52.010;4.446;2023-04-16T01:42:02;12.48;;;2.60;;
46563;SDS011;32291;52.010;4.446;2023-04-16T01:43:04;10.45;;;3.10;;
46563;SDS011;32291;52.010;4.446;2023-04-16T01:44:06;8.15;;;2.50;;
46563;SDS011;32291;52.010;4.446;2023-04-16T01:45:08;9.13;;;2.72;;
46563;SDS011;32291;52.010;4.446;2023-04-16T01:46:17;9.75;;;2.47;;
46563;SDS011;32291;52.010;4.446;2023-04-16T01:47:27;4.72;;;2.40;;
46563;SDS011;32291;52.010;4.446;2023-04-16T01:48:29;7.88;;;2.20;;
46563;SDS011;32291;52.010;4.446;2023-04-16T01:49:31;5.78;;;2.60;;
46563;SDS011;32291;52.010;4.446;2023-04-16T01:50:33;9.80;;;2.58;;
46563;SDS011;32291;52.010;4.446;2023-04-16T01:51:36;10.55;;;2.80;;
46563;SDS011;32291;52.010;4.446;2023-04-16T01:52:38;7.57;;;2.80;;
46563;SDS011;32291;52.010;4.446;2023-04-16T01:53:40;6.72;;;2.42;;
46563;SDS011;32291;52.010;4.446;2023-04-16T01:54:41;6.20;;;2.75;;
46563;SDS011;32291;52.010;4.446;2023-04-16T01:55:43;8.10;;;3.30;;
46563;SDS011;32291;52.010;4.446;2023-04-16T01:56:45;7.97;;;2.83;;
46563;SDS011;32291;52.010;4.446;2023-04-16T01:57:47;11.30;;;2.97;;
46563;SDS011;32291;52.010;4.446;2023-04-16T01:58:51;9.05;;;3.03;;
46563;SDS011;32291;52.010;4.446;2023-04-16T01:59:53;9.52;;;3.25;;
46563;SDS011;32291;52.010;4.446;2023-04-16T02:00:55;7.05;;;2.60;;
46563;SDS011;32291;52.010;4.446;2023-04-16T02:02:02;9.25;;;3.28;;
46563;SDS011;32291;52.010;4.446;2023-04-16T02:03:15;8.35;;;3.28;;
46563;SDS011;32291;52.010;4.446;2023-04-16T02:04:17;6.57;;;2.70;;
46563;SDS011;32291;52.010;4.446;2023-04-16T02:05:19;9.02;;;3.45;;
46563;SDS011;32291;52.010;4.446;2023-04-16T02:06:21;8.48;;;3.05;;
46563;SDS011;32291;52.010;4.446;2023-04-16T02:07:23;9.68;;;2.70;;
46563;SDS011;32291;52.010;4.446;2023-04-16T02:08:25;5.05;;;2.55;;
46563;SDS011;32291;52.010;4.446;2023-04-16T02:09:27;8.05;;;3.78;;
46563;SDS011;32291;52.010;4.446;2023-04-16T02:10:29;8.40;;;2.53;;
46563;SDS011;32291;52.010;4.446;2023-04-16T02:11:31;8.57;;;3.03;;
46563;SDS011;32291;52.010;4.446;2023-04-16T02:12:33;8.93;;;3.25;;
46563;SDS011;32291;52.010;4.446;2023-04-16T02:13:34;7.00;;;3.17;;
46563;SDS011;32291;52.010;4.446;2023-04-16T02:14:36;13.90;;;3.53;;
46563;SDS011;32291;52.010;4.446;2023-04-16T02:15:38;7.05;;;3.33;;
46563;SDS011;32291;52.010;4.446;2023-04-16T02:16:40;6.82;;;3.03;;
46563;SDS011;32291;52.010;4.446;2023-04-16T02:17:42;10.68;;;3.35;;
46563;SDS011;32291;52.010;4.446;2023-04-16T02:18:43;9.40;;;3.40;;
46563;SDS011;32291;52.010;4.446;2023-04-16T02:19:45;6.43;;;3.58;;
46563;SDS011;32291;52.010;4.446;2023-04-16T02:20:47;10.27;;;3.85;;
46563;SDS011;32291;52.010;4.446;2023-04-16T02:21:52;11.95;;;3.65;;
46563;SDS011;32291;52.010;4.446;2023-04-16T02:22:54;10.32;;;3.15;;
46563;SDS011;32291;52.010;4.446;2023-04-16T02:23:56;9.50;;;3.08;;
46563;SDS011;32291;52.010;4.446;2023-04-16T02:24:57;7.43;;;3.33;;
46563;SDS011;32291;52.010;4.446;2023-04-16T02:26:01;7.50;;;3.00;;
46563;SDS011;32291;52.010;4.446;2023-04-16T02:27:03;7.78;;;3.05;;
46563;SDS011;32291;52.010;4.446;2023-04-16T02:28:08;7.07;;;3.13;;
46563;SDS011;32291;52.010;4.446;2023-04-16T02:29:13;9.68;;;2.80;;
46563;SDS011;32291;52.010;4.446;2023-04-16T02:30:16;8.48;;;3.03;;
46563;SDS011;32291;52.010;4.446;2023-04-16T02:31:17;7.20;;;2.97;;
46563;SDS011;32291;52.010;4.446;2023-04-16T02:32:19;16.35;;;4.53;;
46563;SDS011;32291;52.010;4.446;2023-04-16T02:33:22;9.77;;;3.33;;
46563;SDS011;32291;52.010;4.446;2023-04-16T02:34:26;7.70;;;3.60;;
46563;SDS011;32291;52.010;4.446;2023-04-16T02:35:28;6.38;;;3.30;;
46563;SDS011;32291;52.010;4.446;2023-04-16T02:36:30;7.20;;;3.10;;
46563;SDS011;32291;52.010;4.446;2023-04-16T02:37:32;10.32;;;3.58;;
46563;SDS011;32291;52.010;4.446;2023-04-16T02:38:34;5.57;;;3.17;;
46563;SDS011;32291;52.010;4.446;2023-04-16T02:39:37;10.52;;;3.30;;
46563;SDS011;32291;52.010;4.446;2023-04-16T02:40:38;10.38;;;3.67;;
46563;SDS011;32291;52.010;4.446;2023-04-16T02:41:40;11.43;;;4.10;;
46563;SDS011;32291;52.010;4.446;2023-04-16T02:42:42;8.23;;;3.78;;
46563;SDS011;32291;52.010;4.446;2023-04-16T02:43:44;10.60;;;3.45;;
46563;SDS011;32291;52.010;4.446;2023-04-16T02:44:46;9.15;;;4.07;;
46563;SDS011;32291;52.010;4.446;2023-04-16T02:45:47;10.80;;;3.92;;
46563;SDS011;32291;52.010;4.446;2023-04-16T02:46:49;10.32;;;3.67;;
46563;SDS011;32291;52.010;4.446;2023-04-16T02:47:51;14.48;;;4.10;;
46563;SDS011;32291;52.010;4.446;2023-04-16T02:48:52;8.73;;;3.67;;
46563;SDS011;32291;52.010;4.446;2023-04-16T02:49:54;13.05;;;3.38;;
46563;SDS011;32291;52.010;4.446;2023-04-16T02:50:55;12.68;;;3.75;;
46563;SDS011;32291;52.010;4.446;2023-04-16T02:51:57;11.20;;;3.75;;
46563;SDS011;32291;52.010;4.446;2023-04-16T02:52:59;8.43;;;3.15;;
46563;SDS011;32291;52.010;4.446;2023-04-16T02:54:00;10.70;;;3.45;;
46563;SDS011;32291;52.010;4.446;2023-04-16T02:55:03;11.68;;;3.63;;
46563;SDS011;32291;52.010;4.446;2023-04-16T02:56:06;11.85;;;3.70;;
46563;SDS011;32291;52.010;4.446;2023-04-16T02:57:08;11.57;;;4.07;;
46563;SDS011;32291;52.010;4.446;2023-04-16T02:58:10;12.88;;;4.75;;
46563;SDS011;32291;52.010;4.446;2023-04-16T02:59:12;10.52;;;4.15;;
46563;SDS011;32291;52.010;4.446;2023-04-16T03:00:14;9.60;;;3.97;;
46563;SDS011;32291;52.010;4.446;2023-04-16T03:01:15;8.00;;;3.88;;
46563;SDS011;32291;52.010;4.446;2023-04-16T03:02:17;11.57;;;4.05;;
46563;SDS011;32291;52.010;4.446;2023-04-16T03:03:19;10.77;;;3.70;;
46563;SDS011;32291;52.010;4.446;2023-04-16T03:04:22;8.43;;;4.40;;
46563;SDS011;32291;52.010;4.446;2023-04-16T03:05:23;13.82;;;4.32;;
46563;SDS011;32291;52.010;4.446;2023-04-16T03:06:25;10.77;;;4.65;;
46563;SDS011;32291;52.010;4.446;2023-04-16T03:07:26;10.38;;;4.10;;
46563;SDS011;32291;52.010;4.446;2023-04-16T03:08:28;12.30;;;3.90;;
46563;SDS011;32291;52.010;4.446;2023-04-16T03:09:30;9.23;;;4.05;;
46563;SDS011;32291;52.010;4.446;2023-04-16T03:10:32;6.43;;;3.90;;
46563;SDS011;32291;52.010;4.446;2023-04-16T03:11:36;11.15;;;3.85;;
46563;SDS011;32291;52.010;4.446;2023-04-16T03:12:38;9.90;;;4.10;;
46563;SDS011;32291;52.010;4.446;2023-04-16T03:13:40;11.40;;;4.32;;
46563;SDS011;32291;52.010;4.446;2023-04-16T03:14:42;11.85;;;4.70;;
46563;SDS011;32291;52.010;4.446;2023-04-16T03:15:47;15.18;;;4.72;;
46563;SDS011;32291;52.010;4.446;2023-04-16T03:16:49;7.18;;;4.00;;
46563;SDS011;32291;52.010;4.446;2023-04-16T03:17:52;9.10;;;4.05;;
46563;SDS011;32291;52.010;4.446;2023-04-16T03:18:54;7.40;;;3.33;;
46563;SDS011;32291;52.010;4.446;2023-04-16T03:19:56;10.55;;;4.05;;
46563;SDS011;32291;52.010;4.446;2023-04-16T03:20:58;9.63;;;3.63;;
46563;SDS011;32291;52.010;4.446;2023-04-16T03:22:00;9.82;;;3.70;;
46563;SDS011;32291;52.010;4.446;2023-04-16T03:23:02;12.00;;;4.38;;
46563;SDS011;32291;52.010;4.446;2023-04-16T03:24:04;16.70;;;4.07;;
46563;SDS011;32291;52.010;4.446;2023-04-16T03:25:07;14.65;;;4.40;;
46563;SDS011;32291;52.010;4.446;2023-04-16T03:26:09;10.30;;;4.00;;
46563;SDS011;32291;52.010;4.446;2023-04-16T03:27:11;12.23;;;4.20;;
46563;SDS011;32291;52.010;4.446;2023-04-16T03:28:13;14.00;;;4.97;;
46563;SDS011;32291;52.010;4.446;2023-04-16T03:29:15;8.60;;;3.95;;
46563;SDS011;32291;52.010;4.446;2023-04-16T03:30:17;9.02;;;4.82;;
46563;SDS011;32291;52.010;4.446;2023-04-16T03:31:19;13.80;;;4.53;;
46563;SDS011;32291;52.010;4.446;2023-04-16T03:32:21;8.80;;;3.85;;
46563;SDS011;32291;52.010;4.446;2023-04-16T03:33:23;13.05;;;4.47;;
46563;SDS011;32291;52.010;4.446;2023-04-16T03:34:24;8.98;;;4.20;;
46563;SDS011;32291;52.010;4.446;2023-04-16T03:35:26;8.57;;;3.90;;
46563;SDS011;32291;52.010;4.446;2023-04-16T03:36:27;14.73;;;4.68;;
46563;SDS011;32291;52.010;4.446;2023-04-16T03:37:30;6.00;;;3.90;;
46563;SDS011;32291;52.010;4.446;2023-04-16T03:38:31;11.93;;;4.07;;
46563;SDS011;32291;52.010;4.446;2023-04-16T03:39:33;11.13;;;4.40;;
46563;SDS011;32291;52.010;4.446;2023-04-16T03:40:35;11.55;;;4.22;;
46563;SDS011;32291;52.010;4.446;2023-04-16T03:41:36;9.90;;;4.70;;
46563;SDS011;32291;52.010;4.446;2023-04-16T03:42:38;16.00;;;5.55;;
46563;SDS011;32291;52.010;4.446;2023-04-16T03:43:40;12.23;;;4.20;;
46563;SDS011;32291;52.010;4.446;2023-04-16T03:44:41;11.48;;;4.30;;
46563;SDS011;32291;52.010;4.446;2023-04-16T03:45:43;11.32;;;4.35;;
46563;SDS011;32291;52.010;4.446;2023-04-16T03:46:48;13.85;;;4.75;;
46563;SDS011;32291;52.010;4.446;2023-04-16T03:47:50;14.38;;;4.88;;
46563;SDS011;32291;52.010;4.446;2023-04-16T03:48:52;9.50;;;4.95;;
46563;SDS011;32291;52.010;4.446;2023-04-16T03:49:53;14.95;;;4.80;;
46563;SDS011;32291;52.010;4.446;2023-04-16T03:50:55;13.57;;;4.97;;
46563;SDS011;32291;52.010;4.446;2023-04-16T03:51:57;11.02;;;5.32;;
46563;SDS011;32291;52.010;4.446;2023-04-16T03:52:59;12.32;;;4.95;;
46563;SDS011;32291;52.010;4.446;2023-04-16T03:54:01;13.43;;;5.13;;
46563;SDS011;32291;52.010;4.446;2023-04-16T03:55:03;15.73;;;5.07;;
46563;SDS011;32291;52.010;4.446;2023-04-16T03:56:05;10.95;;;4.80;;
46563;SDS011;32291;52.010;4.446;2023-04-16T03:57:06;9.95;;;4.10;;
46563;SDS011;32291;52.010;4.446;2023-04-16T03:58:08;14.00;;;4.93;;
46563;SDS011;32291;52.010;4.446;2023-04-16T03:59:10;15.20;;;4.55;;
46563;SDS011;32291;52.010;4.446;2023-04-16T04:00:12;13.50;;;4.18;;
46563;SDS011;32291;52.010;4.446;2023-04-16T04:01:14;9.98;;;4.38;;
46563;SDS011;32291;52.010;4.446;2023-04-16T04:02:16;10.00;;;4.20;;
46563;SDS011;32291;52.010;4.446;2023-04-16T04:03:18;10.60;;;4.25;;
46563;SDS011;32291;52.010;4.446;2023-04-16T04:04:21;13.15;;;4.15;;
46563;SDS011;32291;52.010;4.446;2023-04-16T04:05:23;15.00;;;4.57;;
46563;SDS011;32291;52.010;4.446;2023-04-16T04:06:26;12.80;;;4.28;;
46563;SDS011;32291;52.010;4.446;2023-04-16T04:07:28;10.63;;;4.28;;
46563;SDS011;32291;52.010;4.446;2023-04-16T04:08:29;9.48;;;4.40;;
46563;SDS011;32291;52.010;4.446;2023-04-16T04:09:31;13.57;;;4.47;;
46563;SDS011;32291;52.010;4.446;2023-04-16T04:10:34;10.07;;;4.63;;
46563;SDS011;32291;52.010;4.446;2023-04-16T04:11:36;12.18;;;4.90;;
46563;SDS011;32291;52.010;4.446;2023-04-16T04:12:38;15.00;;;4.22;;
46563;SDS011;32291;52.010;4.446;2023-04-16T04:13:40;15.35;;;5.10;;
46563;SDS011;32291;52.010;4.446;2023-04-16T04:14:42;12.63;;;5.72;;
46563;SDS011;32291;52.010;4.446;2023-04-16T04:15:44;9.70;;;4.13;;
46563;SDS011;32291;52.010;4.446;2023-04-16T04:16:46;11.23;;;4.60;;
46563;SDS011;32291;52.010;4.446;2023-04-16T04:17:47;13.45;;;4.55;;
46563;SDS011;32291;52.010;4.446;2023-04-16T04:18:49;14.25;;;4.72;;
46563;SDS011;32291;52.010;4.446;2023-04-16T04:19:51;12.35;;;4.32;;
46563;SDS011;32291;52.010;4.446;2023-04-16T04:20:54;9.23;;;5.00;;
46563;SDS011;32291;52.010;4.446;2023-04-16T04:21:56;15.85;;;4.82;;
46563;SDS011;32291;52.010;4.446;2023-04-16T04:22:58;16.75;;;4.35;;
46563;SDS011;32291;52.010;4.446;2023-04-16T04:24:00;15.90;;;5.40;;
46563;SDS011;32291;52.010;4.446;2023-04-16T04:25:02;11.85;;;4.70;;
46563;SDS011;32291;52.010;4.446;2023-04-16T04:26:04;11.50;;;3.85;;
46563;SDS011;32291;52.010;4.446;2023-04-16T04:27:07;14.02;;;5.05;;
46563;SDS011;32291;52.010;4.446;2023-04-16T04:28:08;13.40;;;3.80;;
46563;SDS011;32291;52.010;4.446;2023-04-16T04:29:10;10.73;;;4.75;;
46563;SDS011;32291;52.010;4.446;2023-04-16T04:30:12;10.07;;;4.15;;
46563;SDS011;32291;52.010;4.446;2023-04-16T04:31:13;12.10;;;3.97;;
46563;SDS011;32291;52.010;4.446;2023-04-16T04:32:16;10.38;;;3.80;;
46563;SDS011;32291;52.010;4.446;2023-04-16T04:33:17;15.30;;;4.40;;
46563;SDS011;32291;52.010;4.446;2023-04-16T04:34:19;11.65;;;4.50;;
46563;SDS011;32291;52.010;4.446;2023-04-16T04:35:21;11.80;;;4.10;;
46563;SDS011;32291;52.010;4.446;2023-04-16T04:36:22;10.50;;;3.78;;
46563;SDS011;32291;52.010;4.446;2023-04-16T04:37:24;10.63;;;4.20;;
46563;SDS011;32291;52.010;4.446;2023-04-16T04:38:26;7.60;;;3.58;;
46563;SDS011;32291;52.010;4.446;2023-04-16T04:39:28;7.40;;;3.90;;
46563;SDS011;32291;52.010;4.446;2023-04-16T04:40:29;10.85;;;3.55;;
46563;SDS011;32291;52.010;4.446;2023-04-16T04:41:31;11.43;;;4.03;;
46563;SDS011;32291;52.010;4.446;2023-04-16T04:42:32;7.05;;;3.67;;
46563;SDS011;32291;52.010;4.446;2023-04-16T04:43:34;13.95;;;4.07;;
46563;SDS011;32291;52.010;4.446;2023-04-16T04:44:36;12.02;;;4.57;;
46563;SDS011;32291;52.010;4.446;2023-04-16T04:45:38;12.50;;;3.92;;
46563;SDS011;32291;52.010;4.446;2023-04-16T04:46:40;13.63;;;4.07;;
46563;SDS011;32291;52.010;4.446;2023-04-16T04:47:41;10.02;;;3.88;;
46563;SDS011;32291;52.010;4.446;2023-04-16T04:48:43;7.32;;;3.92;;
46563;SDS011;32291;52.010;4.446;2023-04-16T04:49:45;12.73;;;3.50;;
46563;SDS011;32291;52.010;4.446;2023-04-16T04:50:47;11.45;;;4.97;;
46563;SDS011;32291;52.010;4.446;2023-04-16T04:51:48;11.90;;;3.47;;
46563;SDS011;32291;52.010;4.446;2023-04-16T04:52:50;8.02;;;3.25;;
46563;SDS011;32291;52.010;4.446;2023-04-16T04:53:51;15.73;;;4.40;;
46563;SDS011;32291;52.010;4.446;2023-04-16T04:54:53;8.57;;;2.95;;
46563;SDS011;32291;52.010;4.446;2023-04-16T04:55:56;9.07;;;3.92;;
46563;SDS011;32291;52.010;4.446;2023-04-16T04:56:58;12.40;;;4.13;;
46563;SDS011;32291;52.010;4.446;2023-04-16T04:58:00;7.68;;;3.25;;
46563;SDS011;32291;52.010;4.446;2023-04-16T04:59:03;10.48;;;3.70;;
46563;SDS011;32291;52.010;4.446;2023-04-16T05:00:05;9.23;;;3.42;;
46563;SDS011;32291;52.010;4.446;2023-04-16T05:01:08;10.35;;;3.47;;
46563;SDS011;32291;52.010;4.446;2023-04-16T05:02:09;9.07;;;3.47;;
46563;SDS011;32291;52.010;4.446;2023-04-16T05:03:11;14.60;;;3.97;;
46563;SDS011;32291;52.010;4.446;2023-04-16T05:04:13;6.90;;;3.38;;
46563;SDS011;32291;52.010;4.446;2023-04-16T05:05:15;9.65;;;3.40;;
46563;SDS011;32291;52.010;4.446;2023-04-16T05:06:16;9.25;;;3.90;;
46563;SDS011;32291;52.010;4.446;2023-04-16T05:07:18;11.13;;;3.72;;
46563;SDS011;32291;52.010;4.446;2023-04-16T05:08:20;8.88;;;3.88;;
46563;SDS011;32291;52.010;4.446;2023-04-16T05:09:22;10.73;;;3.83;;
46563;SDS011;32291;52.010;4.446;2023-04-16T05:10:25;11.27;;;3.88;;
46563;SDS011;32291;52.010;4.446;2023-04-16T05:11:28;11.30;;;3.42;;
46563;SDS011;32291;52.010;4.446;2023-04-16T05:12:30;11.13;;;3.80;;
46563;SDS011;32291;52.010;4.446;2023-04-16T05:13:31;11.35;;;4.00;;
46563;SDS011;32291;52.010;4.446;2023-04-16T05:14:33;9.63;;;3.60;;
46563;SDS011;32291;52.010;4.446;2023-04-16T05:15:36;17.88;;;4.30;;
46563;SDS011;32291;52.010;4.446;2023-04-16T05:16:38;13.00;;;4.55;;
46563;SDS011;32291;52.010;4.446;2023-04-16T05:17:40;13.93;;;4.72;;
46563;SDS011;32291;52.010;4.446;2023-04-16T05:18:41;10.43;;;4.30;;
46563;SDS011;32291;52.010;4.446;2023-04-16T05:19:43;8.32;;;4.00;;
46563;SDS011;32291;52.010;4.446;2023-04-16T05:20:45;9.70;;;4.13;;
46563;SDS011;32291;52.010;4.446;2023-04-16T05:21:46;9.68;;;3.70;;
46563;SDS011;32291;52.010;4.446;2023-04-16T05:22:49;10.15;;;3.50;;
46563;SDS011;32291;52.010;4.446;2023-04-16T05:23:51;12.27;;;3.90;;
46563;SDS011;32291;52.010;4.446;2023-04-16T05:24:53;10.70;;;4.10;;
46563;SDS011;32291;52.010;4.446;2023-04-16T05:25:55;13.90;;;4.28;;
46563;SDS011;32291;52.010;4.446;2023-04-16T05:26:57;12.60;;;4.05;;
46563;SDS011;32291;52.010;4.446;2023-04-16T05:27:58;8.65;;;3.75;;
46563;SDS011;32291;52.010;4.446;2023-04-16T05:29:00;12.13;;;4.13;;
46563;SDS011;32291;52.010;4.446;2023-04-16T05:30:02;11.40;;;4.10;;
46563;SDS011;32291;52.010;4.446;2023-04-16T05:31:04;11.23;;;4.07;;
46563;SDS011;32291;52.010;4.446;2023-04-16T05:32:06;8.77;;;3.55;;
46563;SDS011;32291;52.010;4.446;2023-04-16T05:33:08;9.48;;;3.55;;
46563;SDS011;32291;52.010;4.446;2023-04-16T05:34:10;14.60;;;4.15;;
46563;SDS011;32291;52.010;4.446;2023-04-16T05:35:12;8.77;;;3.72;;
46563;SDS011;32291;52.010;4.446;2023-04-16T05:36:13;10.32;;;3.33;;
46563;SDS011;32291;52.010;4.446;2023-04-16T05:37:15;9.02;;;3.95;;
46563;SDS011;32291;52.010;4.446;2023-04-16T05:38:17;10.75;;;3.35;;
46563;SDS011;32291;52.010;4.446;2023-04-16T05:39:18;7.97;;;3.42;;
46563;SDS011;32291;52.010;4.446;2023-04-16T05:40:21;10.70;;;4.18;;
46563;SDS011;32291;52.010;4.446;2023-04-16T05:41:22;8.02;;;3.78;;
46563;SDS011;32291;52.010;4.446;2023-04-16T05:42:24;8.18;;;3.55;;
46563;SDS011;32291;52.010;4.446;2023-04-16T05:43:26;7.57;;;3.72;;
46563;SDS011;32291;52.010;4.446;2023-04-16T05:44:27;11.80;;;4.05;;
46563;SDS011;32291;52.010;4.446;2023-04-16T05:45:29;8.05;;;3.45;;
46563;SDS011;32291;52.010;4.446;2023-04-16T05:46:33;11.15;;;3.75;;
46563;SDS011;32291;52.010;4.446;2023-04-16T05:47:35;11.38;;;3.78;;
46563;SDS011;32291;52.010;4.446;2023-04-16T05:48:37;11.05;;;4.68;;
46563;SDS011;32291;52.010;4.446;2023-04-16T05:49:39;11.02;;;3.67;;
46563;SDS011;32291;52.010;4.446;2023-04-16T05:50:40;12.05;;;4.63;;
46563;SDS011;32291;52.010;4.446;2023-04-16T05:51:42;13.35;;;3.72;;
46563;SDS011;32291;52.010;4.446;2023-04-16T05:52:44;10.10;;;3.47;;
46563;SDS011;32291;52.010;4.446;2023-04-16T05:53:46;8.32;;;3.70;;
46563;SDS011;32291;52.010;4.446;2023-04-16T05:54:48;11.60;;;5.13;;
46563;SDS011;32291;52.010;4.446;2023-04-16T05:55:50;10.63;;;4.50;;
46563;SDS011;32291;52.010;4.446;2023-04-16T05:56:52;10.13;;;4.40;;
46563;SDS011;32291;52.010;4.446;2023-04-16T05:57:54;9.27;;;3.50;;
46563;SDS011;32291;52.010;4.446;2023-04-16T05:58:56;9.82;;;4.00;;
46563;SDS011;32291;52.010;4.446;2023-04-16T05:59:58;11.18;;;3.72;;
46563;SDS011;32291;52.010;4.446;2023-04-16T06:01:00;8.30;;;4.03;;
46563;SDS011;32291;52.010;4.446;2023-04-16T06:02:02;7.38;;;4.43;;
46563;SDS011;32291;52.010;4.446;2023-04-16T06:03:04;7.95;;;4.03;;
46563;SDS011;32291;52.010;4.446;2023-04-16T06:04:06;12.52;;;3.90;;
46563;SDS011;32291;52.010;4.446;2023-04-16T06:05:08;11.25;;;3.85;;
46563;SDS011;32291;52.010;4.446;2023-04-16T06:06:10;7.82;;;3.88;;
46563;SDS011;32291;52.010;4.446;2023-04-16T06:07:12;10.00;;;4.07;;
46563;SDS011;32291;52.010;4.446;2023-04-16T06:08:14;5.75;;;4.00;;
46563;SDS011;32291;52.010;4.446;2023-04-16T06:09:16;12.00;;;4.13;;
46563;SDS011;32291;52.010;4.446;2023-04-16T06:10:18;9.60;;;4.00;;
46563;SDS011;32291;52.010;4.446;2023-04-16T06:11:20;5.78;;;3.70;;